Terminal Aerodrome Forecast
Issued by NWS Quad Cities IA IL

Home | Current Version | Previous Version | Text Only | Print | Product List | Glossary On
Versions: 1 2 3 4 5 6 7 8 9 10 11 12 13 14 15 16 17 18 19 20 21 22 23 24 25 26 27 28 29 30 31 32 33 34 35 36 37 38
000
FTUS43 KDVN 300927 AAC
TAFMLI
TAF AMD
KMLI 300927Z 3009/3106 09003KT P6SM SCT040
      TEMPO 3010/3012 3SM TSRA BKN035CB
     FM301300 12005KT 6SM BR SCT040 BKN150
     FM301500 30003KT P6SM SCT040 BKN100 PROB30 3021/3024 5SM TSRA
      BKN040CB=

USA.gov is the U.S. government's official web portal to all federal, state and local government web resources and services.